Skip Navigation LinksHome page > Weather > Current weather Skip Navigation Links

Current Weather

Indira Gandhi Intl Apt, New Delhi, India

For information only: do not use for flight planning or navigation.
Latest weather
Observation time Wednesday, February 22, 2017 1:30 PM IST
Local time Wednesday, February 22, 2017 1:51 PM IST
Flight conditions Instrument Meteorological Conditions
Winds
Wind direction West (260°)
Wind speed 7 mph
Visibility 2.2 mi.
Present weather haze
Sky condition
Ceiling unlimited
Temperature 79°F
Dewpoint 43°F
Altimeter 29.91 in.Hg
Derived measurements
Relative humidity 28%
Heat index 79°F
Density altitude 2182 ft.
Remarks
No significant changes expected in the next two hours.
METAR VIDP 220800Z 26006KT 3500 HZ NSC 26/06 Q1013 NOSIG

Settings

Location code

InnerDrive.Weather 4.0.6144.1 Release CLR 4.0.30319.34209
Copyright ©2015 Inner Drive Technology. All rights reserved. Portions Copyright ©1986-2015 David Braverman.

Find weather

Site navigation


Skip Navigation Links

Place info

Page info

PayPal - The safer, easier way to pay online!

Return home.

Copyright ©2017 Inner Drive Technology. Purveyors of fine, hand-crafted computer software. Page printed 2017-02-22T08:21:49 UTC.